createdAt,value
2022-12-03T00:01:23.811Z,19.45
2022-12-03T00:03:50.965Z,23.33
2022-12-03T00:06:18.307Z,21.95
2022-12-03T00:08:45.207Z,21.90
2022-12-03T00:11:12.151Z,22.58
2022-12-03T00:13:38.882Z,23.15
2022-12-03T00:16:05.902Z,27.00
2022-12-03T00:18:33.555Z,23.02
2022-12-03T00:21:00.425Z,25.50
2022-12-03T00:23:27.568Z,26.23
2022-12-03T00:25:54.166Z,15.63
2022-12-03T00:28:21.059Z,12.60
2022-12-03T00:30:47.903Z,27.42
2022-12-03T00:33:14.659Z,25.88
2022-12-03T00:35:41.936Z,22.70
2022-12-03T00:38:08.618Z,23.55
2022-12-03T00:40:35.391Z,26.13
2022-12-03T00:43:02.182Z,22.52
2022-12-03T00:45:28.830Z,21.10
2022-12-03T00:47:55.638Z,22.13
2022-12-03T00:50:22.843Z,21.63
2022-12-03T00:52:50.209Z,25.40
2022-12-03T00:55:17.276Z,24.98
2022-12-03T00:57:44.119Z,28.83
2022-12-03T01:00:12.233Z,27.88
2022-12-03T01:02:38.797Z,22.25
2022-12-03T01:05:06.320Z,27.30
2022-12-03T01:07:33.194Z,24.45
2022-12-03T01:09:59.975Z,25.35
2022-12-03T01:12:26.688Z,28.30
2022-12-03T01:14:53.606Z,26.70
2022-12-03T01:17:21.139Z,29.58
2022-12-03T01:19:48.683Z,28.88
2022-12-03T01:22:15.354Z,25.23
2022-12-03T01:24:42.154Z,25.95
2022-12-03T01:27:09.102Z,26.40
2022-12-03T01:29:35.786Z,31.38
2022-12-03T01:32:17.544Z,27.85
2022-12-03T01:34:48.545Z,25.73
2022-12-03T01:37:16.057Z,23.90
2022-12-03T01:39:43.045Z,26.08
2022-12-03T01:42:16.168Z,19.85
2022-12-03T01:44:43.637Z,24.75
2022-12-03T01:47:16.407Z,21.75
2022-12-03T01:49:44.683Z,27.53
2022-12-03T01:52:18.129Z,28.67
2022-12-03T01:54:58.137Z,25.75
2022-12-03T01:57:26.213Z,27.60
2022-12-03T01:59:55.598Z,28.55
2022-12-03T02:02:25.820Z,25.17
2022-12-03T02:04:54.268Z,26.48
2022-12-03T02:07:28.507Z,28.45
2022-12-03T02:09:57.752Z,25.35
2022-12-03T02:12:49.067Z,28.77
2022-12-03T02:15:15.964Z,27.75
2022-12-03T02:17:43.378Z,29.63
2022-12-03T02:20:12.478Z,24.75
2022-12-03T02:23:10.363Z,26.73
2022-12-03T02:25:38.204Z,25.58
2022-12-03T02:28:08.007Z,22.48
2022-12-03T02:30:35.558Z,27.08
2022-12-03T02:33:03.216Z,26.58
2022-12-03T02:35:34.893Z,28.38
2022-12-03T02:38:24.052Z,31.02
2022-12-03T02:40:56.829Z,23.92
2022-12-03T02:43:24.106Z,33.13
2022-12-03T02:45:53.768Z,26.30
2022-12-03T02:48:30.891Z,25.08
2022-12-03T02:51:01.027Z,32.85
2022-12-03T02:53:35.862Z,29.88
2022-12-03T02:56:04.013Z,29.65
2022-12-03T02:58:32.848Z,34.17
2022-12-03T03:01:01.645Z,29.23
2022-12-03T03:03:30.035Z,33.45
2022-12-03T03:05:59.087Z,28.83
2022-12-03T03:08:27.009Z,25.60
2022-12-03T03:10:55.006Z,35.42
2022-12-03T03:13:22.323Z,28.58
2022-12-03T03:15:49.227Z,30.67
2022-12-03T03:18:16.932Z,32.05
2022-12-03T03:20:44.226Z,21.55
2022-12-03T03:23:10.714Z,31.17
2022-12-03T03:25:39.325Z,30.75
2022-12-03T03:28:07.592Z,33.45
2022-12-03T03:30:35.959Z,29.33
2022-12-03T03:33:03.437Z,34.10
2022-12-03T03:35:30.491Z,32.30
2022-12-03T03:37:58.749Z,31.08
2022-12-03T03:40:26.714Z,32.50
2022-12-03T03:42:56.104Z,33.47
2022-12-03T03:45:28.784Z,31.63
2022-12-03T03:47:58.200Z,22.70
2022-12-03T03:50:25.964Z,28.67
2022-12-03T03:52:53.257Z,36.95
2022-12-03T03:55:20.609Z,33.13
2022-12-03T03:57:48.295Z,31.63
2022-12-03T04:00:17.081Z,31.42
2022-12-03T04:02:44.042Z,30.38
2022-12-03T04:05:19.610Z,32.80
2022-12-03T04:07:46.728Z,35.30
2022-12-03T04:10:33.165Z,35.05
2022-12-03T04:13:00.895Z,36.92
2022-12-03T04:15:28.637Z,32.40
2022-12-03T04:18:25.441Z,31.10
2022-12-03T04:21:12.136Z,28.00
2022-12-03T04:23:41.218Z,20.85
2022-12-03T04:26:26.457Z,35.70
2022-12-03T04:28:53.274Z,35.08
2022-12-03T04:31:38.713Z,27.20
2022-12-03T04:34:24.299Z,33.92
2022-12-03T04:36:51.440Z,78.43
2022-12-03T04:39:18.168Z,29.05
2022-12-03T04:41:45.245Z,30.15
2022-12-03T04:44:30.453Z,31.98
2022-12-03T04:46:57.275Z,32.20
2022-12-03T04:49:24.457Z,35.38
2022-12-03T04:51:51.883Z,31.45
2022-12-03T04:54:18.959Z,30.52
2022-12-03T04:56:45.897Z,14.82
2022-12-03T04:59:16.327Z,32.90
2022-12-03T05:01:43.935Z,30.30
2022-12-03T05:04:11.660Z,29.77
2022-12-03T05:06:39.202Z,32.05
2022-12-03T05:09:06.742Z,30.50
2022-12-03T05:11:34.402Z,33.30
2022-12-03T05:14:01.616Z,35.70
2022-12-03T05:16:29.302Z,28.45
2022-12-03T05:18:56.466Z,29.45
2022-12-03T05:21:23.679Z,35.03
2022-12-03T05:23:51.845Z,34.38
2022-12-03T05:26:20.153Z,30.30
2022-12-03T05:28:49.466Z,33.35
2022-12-03T05:31:16.759Z,34.05
2022-12-03T05:33:44.582Z,35.88
2022-12-03T05:36:11.938Z,34.30
2022-12-03T05:38:39.053Z,28.45
2022-12-03T05:41:26.305Z,30.88
2022-12-03T05:43:53.135Z,19.25
2022-12-03T05:46:20.101Z,32.55
2022-12-03T05:48:47.054Z,32.55
2022-12-03T05:51:13.739Z,32.83
2022-12-03T05:53:40.646Z,33.63
2022-12-03T05:56:07.793Z,37.17
2022-12-03T05:58:34.509Z,30.08
2022-12-03T06:01:01.343Z,36.90
2022-12-03T06:03:28.325Z,36.38
2022-12-03T06:05:55.422Z,24.00
2022-12-03T06:08:22.094Z,31.55
2022-12-03T06:10:49.148Z,31.58
2022-12-03T06:13:16.362Z,37.25
2022-12-03T06:15:44.162Z,36.45
2022-12-03T06:18:11.487Z,32.03
2022-12-03T06:20:38.531Z,31.65
2022-12-03T06:23:07.836Z,29.55
2022-12-03T06:25:34.838Z,35.47
2022-12-03T06:28:02.154Z,40.35
2022-12-03T06:30:30.274Z,29.27
2022-12-03T06:32:57.840Z,29.77
2022-12-03T06:35:25.606Z,26.83
2022-12-03T06:37:52.648Z,33.83
2022-12-03T06:40:20.890Z,33.65
2022-12-03T06:42:47.776Z,31.85
2022-12-03T06:45:14.700Z,33.28
2022-12-03T06:47:43.161Z,36.08
2022-12-03T06:50:10.925Z,34.28
2022-12-03T06:52:38.219Z,37.47
2022-12-03T06:55:06.930Z,32.30
2022-12-03T06:57:34.309Z,29.52
2022-12-03T07:00:02.321Z,21.35
2022-12-03T07:02:29.577Z,34.95
2022-12-03T07:04:56.848Z,28.67
2022-12-03T07:07:26.319Z,35.15
2022-12-03T07:09:53.489Z,40.47
2022-12-03T07:12:20.333Z,34.63
2022-12-03T07:14:49.517Z,27.60
2022-12-03T07:17:16.936Z,33.08
2022-12-03T07:19:43.809Z,37.30
2022-12-03T07:22:10.620Z,37.08
2022-12-03T07:24:37.472Z,35.70
2022-12-03T07:27:04.201Z,34.78
2022-12-03T07:29:31.031Z,33.25
2022-12-03T07:31:58.521Z,33.15
2022-12-03T07:34:25.444Z,34.45
2022-12-03T07:36:52.420Z,34.58
2022-12-03T07:39:19.184Z,34.85
2022-12-03T07:41:46.195Z,33.95
2022-12-03T07:44:14.668Z,36.58
2022-12-03T07:46:42.909Z,32.30
2022-12-03T07:49:09.793Z,32.38
2022-12-03T07:51:36.550Z,32.92
2022-12-03T07:54:03.496Z,37.20
2022-12-03T07:56:30.274Z,31.67
2022-12-03T07:58:57.238Z,36.00
2022-12-03T08:01:24.209Z,26.23
2022-12-03T08:03:51.171Z,29.55
2022-12-03T08:06:17.880Z,25.95
2022-12-03T08:08:44.569Z,32.53
2022-12-03T08:11:15.039Z,33.92
2022-12-03T08:13:42.624Z,37.13
2022-12-03T08:16:16.921Z,27.02
2022-12-03T08:18:45.044Z,40.63
2022-12-03T08:21:14.455Z,34.45
2022-12-03T08:23:41.515Z,33.38
2022-12-03T08:26:24.249Z,34.28
2022-12-03T08:28:52.707Z,33.58
2022-12-03T08:31:26.835Z,28.20
2022-12-03T08:34:18.796Z,23.52
2022-12-03T08:36:47.649Z,28.98
2022-12-03T08:39:35.135Z,32.45
2022-12-03T08:42:23.628Z,25.23
2022-12-03T08:44:53.530Z,26.50
2022-12-03T08:47:22.020Z,26.25
2022-12-03T08:50:03.371Z,26.45
2022-12-03T08:52:34.723Z,34.95
2022-12-03T08:55:33.562Z,30.25
2022-12-03T08:58:16.654Z,29.30
2022-12-03T09:00:46.447Z,33.10
2022-12-03T09:03:18.615Z,34.95
2022-12-03T09:05:46.214Z,35.47
2022-12-03T09:08:13.257Z,34.88
2022-12-03T09:10:40.669Z,39.42
2022-12-03T09:13:10.746Z,36.85
2022-12-03T09:15:40.113Z,33.70
2022-12-03T09:18:10.830Z,33.30
2022-12-03T09:20:40.063Z,36.55
2022-12-03T09:23:07.342Z,30.83
2022-12-03T09:25:34.545Z,31.35
2022-12-03T09:28:01.436Z,31.30
2022-12-03T09:30:28.603Z,31.25
2022-12-03T09:32:55.365Z,37.40
2022-12-03T09:35:22.774Z,31.90
2022-12-03T09:37:49.538Z,31.90
2022-12-03T09:40:20.262Z,32.35
2022-12-03T09:42:47.580Z,33.22
2022-12-03T09:45:15.231Z,30.67
2022-12-03T09:47:46.064Z,27.02
2022-12-03T09:50:21.772Z,31.67
2022-12-03T09:52:50.987Z,32.40
2022-12-03T09:55:22.845Z,63.67
2022-12-03T09:57:51.883Z,32.72
2022-12-03T10:00:27.231Z,33.35
2022-12-03T10:03:01.610Z,35.55
2022-12-03T10:05:29.546Z,33.78
2022-12-03T10:08:04.593Z,37.15
2022-12-03T10:10:34.075Z,35.25
2022-12-03T10:13:01.659Z,31.70
2022-12-03T10:15:28.439Z,31.02
2022-12-03T10:17:57.351Z,38.28
2022-12-03T10:20:26.086Z,35.53
2022-12-03T10:22:53.569Z,34.30
2022-12-03T10:25:23.634Z,28.58
2022-12-03T10:28:06.405Z,32.05
2022-12-03T10:30:33.395Z,32.03
2022-12-03T10:33:17.374Z,41.97
2022-12-03T10:35:45.846Z,40.22
2022-12-03T10:38:24.186Z,36.55
2022-12-03T10:40:51.264Z,33.15
2022-12-03T10:43:18.162Z,34.90
2022-12-03T10:45:48.192Z,39.97
2022-12-03T10:48:21.004Z,28.77
2022-12-03T10:50:55.947Z,37.47
2022-12-03T10:53:30.299Z,38.25
2022-12-03T10:56:03.557Z,36.20
2022-12-03T10:58:41.613Z,34.83
2022-12-03T11:01:21.870Z,32.33
2022-12-03T11:03:53.889Z,41.50
2022-12-03T11:06:23.424Z,34.72
2022-12-03T11:08:57.894Z,38.65
2022-12-03T11:11:32.173Z,37.78
2022-12-03T11:14:02.490Z,37.65
2022-12-03T11:16:43.405Z,33.42
2022-12-03T11:19:13.425Z,41.30
2022-12-03T11:22:11.577Z,41.70
2022-12-03T11:25:22.263Z,23.70
2022-12-03T11:28:15.507Z,22.65
2022-12-03T11:30:53.321Z,30.60
2022-12-03T11:33:33.757Z,32.50
2022-12-03T11:36:05.919Z,31.50
2022-12-03T11:38:54.113Z,30.85
2022-12-03T11:41:23.487Z,37.60
2022-12-03T11:44:00.040Z,36.15
2022-12-03T11:46:40.863Z,28.67
2022-12-03T11:49:37.521Z,40.35
2022-12-03T11:52:20.767Z,30.38
2022-12-03T11:54:53.610Z,35.58
2022-12-03T11:57:39.031Z,22.60
2022-12-03T12:00:17.604Z,30.25
2022-12-03T12:02:44.859Z,26.40
2022-12-03T12:05:28.124Z,25.88
2022-12-03T12:08:03.789Z,21.77
2022-12-03T12:10:49.187Z,26.48
2022-12-03T12:13:51.796Z,19.75
2022-12-03T12:16:38.657Z,24.90
2022-12-03T12:19:35.020Z,27.75
2022-12-03T12:22:27.401Z,26.30
2022-12-03T12:24:57.209Z,24.88
2022-12-03T12:27:34.660Z,14.27
2022-12-03T12:30:08.442Z,20.60
2022-12-03T12:35:29.542Z,25.42
2022-12-03T12:37:59.976Z,23.10
2022-12-03T12:40:30.745Z,15.50
2022-12-03T12:42:59.076Z,16.92
2022-12-03T12:45:29.374Z,21.30
2022-12-03T12:48:14.818Z,20.42
2022-12-03T12:50:44.162Z,28.85
2022-12-03T12:53:10.942Z,17.73
2022-12-03T12:55:41.884Z,24.98
2022-12-03T12:58:15.280Z,30.25
2022-12-03T13:00:42.759Z,27.92
2022-12-03T13:03:12.821Z,21.67
2022-12-03T13:05:45.832Z,27.52
2022-12-03T13:08:21.106Z,28.20
2022-12-03T13:10:48.277Z,28.73
2022-12-03T13:13:16.684Z,30.92
2022-12-03T13:16:00.222Z,29.52
2022-12-03T13:18:35.442Z,31.75
2022-12-03T13:21:26.867Z,26.17
2022-12-03T13:23:58.545Z,24.92
2022-12-03T13:26:38.662Z,28.65
2022-12-03T13:29:12.317Z,26.05
2022-12-03T13:31:43.714Z,20.38
2022-12-03T13:34:20.791Z,25.25
2022-12-03T13:36:53.488Z,23.52
2022-12-03T13:39:33.531Z,27.67
2022-12-03T13:42:33.743Z,32.33
2022-12-03T13:45:05.988Z,24.42
2022-12-03T13:47:32.704Z,28.38
2022-12-03T13:50:05.391Z,30.25
2022-12-03T13:52:35.038Z,30.48
2022-12-03T13:55:03.723Z,25.77
2022-12-03T13:57:30.556Z,27.63
2022-12-03T13:59:57.611Z,26.80
2022-12-03T14:02:26.027Z,24.90
2022-12-03T14:05:00.489Z,30.92
2022-12-03T14:07:28.517Z,26.30
2022-12-03T14:09:55.791Z,31.30
2022-12-03T14:12:27.772Z,26.88
2022-12-03T14:14:55.170Z,24.63
2022-12-03T14:17:22.696Z,28.40
2022-12-03T14:19:50.163Z,34.75
2022-12-03T14:22:21.720Z,25.38
2022-12-03T14:24:50.745Z,30.13
2022-12-03T14:27:18.389Z,30.13
2022-12-03T14:29:45.291Z,32.70
2022-12-03T14:32:12.628Z,27.58
2022-12-03T14:34:39.844Z,24.27
2022-12-03T14:37:08.115Z,33.40
2022-12-03T14:39:35.270Z,31.90
2022-12-03T14:42:14.096Z,31.83
2022-12-03T14:44:43.185Z,22.20
2022-12-03T14:47:12.753Z,29.95
2022-12-03T14:49:40.532Z,33.53
2022-12-03T14:52:11.776Z,31.45
2022-12-03T14:54:44.322Z,28.08
2022-12-03T14:57:13.153Z,34.55
2022-12-03T14:59:45.637Z,31.35
2022-12-03T15:02:13.335Z,16.65
2022-12-03T15:04:42.900Z,35.30
2022-12-03T15:07:15.373Z,34.85
2022-12-03T15:09:42.233Z,37.92
2022-12-03T15:12:09.549Z,31.85
2022-12-03T15:14:36.257Z,32.83
2022-12-03T15:17:03.302Z,35.20
2022-12-03T15:19:30.908Z,31.40
2022-12-03T15:22:05.326Z,28.23
2022-12-03T15:24:32.561Z,32.28
2022-12-03T15:27:01.019Z,25.40
2022-12-03T15:29:28.269Z,33.75
2022-12-03T15:31:55.772Z,35.63
2022-12-03T15:34:25.407Z,38.13
2022-12-03T15:36:53.432Z,32.65
2022-12-03T15:39:20.516Z,39.67
2022-12-03T15:41:48.445Z,37.00
2022-12-03T15:44:15.365Z,43.65
2022-12-03T15:46:43.641Z,32.55
2022-12-03T15:49:11.229Z,35.80
2022-12-03T15:51:38.359Z,34.65
2022-12-03T15:54:08.019Z,33.28
2022-12-03T15:56:37.754Z,34.85
2022-12-03T15:59:05.940Z,33.83
2022-12-03T16:01:33.639Z,37.15
2022-12-03T16:04:05.397Z,35.38
2022-12-03T16:06:32.546Z,28.25
2022-12-03T16:08:59.827Z,34.13
2022-12-03T16:11:29.280Z,32.08
2022-12-03T16:13:57.561Z,31.30
2022-12-03T16:16:25.197Z,43.90
2022-12-03T16:18:55.074Z,42.63
2022-12-03T16:21:26.765Z,31.80
2022-12-03T16:23:55.699Z,31.38
2022-12-03T16:26:26.190Z,36.10
2022-12-03T16:28:53.229Z,39.55
2022-12-03T16:31:20.607Z,37.03
2022-12-03T16:33:48.180Z,41.83
2022-12-03T16:36:15.743Z,36.75
2022-12-03T16:38:43.093Z,33.53
2022-12-03T16:41:10.299Z,42.15
2022-12-03T16:43:40.930Z,37.08
2022-12-03T16:46:15.086Z,37.92
2022-12-03T16:48:42.144Z,27.10
2022-12-03T16:51:09.744Z,34.28
2022-12-03T16:53:39.052Z,24.90
2022-12-03T16:56:06.135Z,35.75
2022-12-03T16:58:33.186Z,32.72
2022-12-03T17:01:03.408Z,31.35
2022-12-03T17:03:33.842Z,44.00
2022-12-03T17:06:01.803Z,39.20
2022-12-03T17:08:28.707Z,33.72
2022-12-03T17:10:55.926Z,23.20
2022-12-03T17:13:25.818Z,34.28
2022-12-03T17:15:52.905Z,26.48
2022-12-03T17:18:19.830Z,37.85
2022-12-03T17:20:47.056Z,42.92
2022-12-03T17:23:14.000Z,37.55
2022-12-03T17:25:41.289Z,38.65
2022-12-03T17:28:08.390Z,40.35
2022-12-03T17:30:37.456Z,40.45
2022-12-03T17:33:04.638Z,43.92
2022-12-03T17:35:31.689Z,40.10
2022-12-03T17:37:58.767Z,42.42
2022-12-03T17:40:31.482Z,50.85
2022-12-03T17:42:58.495Z,50.42
2022-12-03T17:45:26.425Z,45.58
2022-12-03T17:48:01.841Z,35.40
2022-12-03T17:50:28.726Z,45.92
2022-12-03T17:52:55.479Z,45.97
2022-12-03T17:55:31.294Z,42.42
2022-12-03T17:58:04.342Z,45.50
2022-12-03T18:00:33.017Z,47.88
2022-12-03T18:03:03.058Z,45.08
2022-12-03T18:05:30.362Z,38.17
2022-12-03T18:07:57.696Z,38.33
2022-12-03T18:10:24.984Z,46.65
2022-12-03T18:12:56.958Z,47.90
2022-12-03T18:15:28.092Z,41.78
2022-12-03T18:17:58.091Z,47.03
2022-12-03T18:20:25.431Z,45.88
2022-12-03T18:22:52.756Z,53.70
2022-12-03T18:25:19.921Z,38.38
2022-12-03T18:27:46.867Z,37.25
2022-12-03T18:30:14.303Z,41.00
2022-12-03T18:32:42.842Z,33.03
2022-12-03T18:35:10.156Z,47.67
2022-12-03T18:37:37.523Z,40.72
2022-12-03T18:40:12.461Z,41.22
2022-12-03T18:42:40.261Z,43.95
2022-12-03T18:45:13.076Z,33.80
2022-12-03T18:47:41.353Z,46.72
2022-12-03T18:50:09.869Z,39.08
2022-12-03T18:52:43.094Z,41.95
2022-12-03T18:55:19.549Z,46.88
2022-12-03T18:57:47.227Z,51.65
2022-12-03T19:00:14.772Z,46.85
2022-12-03T19:05:32.378Z,44.15
2022-12-03T19:08:06.748Z,42.38
2022-12-03T19:10:33.740Z,41.28
2022-12-03T19:13:04.220Z,43.20
2022-12-03T19:15:34.486Z,44.53
2022-12-03T19:18:04.583Z,39.63
2022-12-03T19:20:31.814Z,48.72
2022-12-03T19:23:01.816Z,44.88
2022-12-03T19:25:31.140Z,29.63
2022-12-03T19:28:00.216Z,45.80
2022-12-03T19:30:31.780Z,39.65
2022-12-03T19:32:58.549Z,45.13
2022-12-03T19:35:25.199Z,48.05
2022-12-03T19:37:51.889Z,49.25
2022-12-03T19:40:18.492Z,43.80
2022-12-03T19:42:45.173Z,51.25
2022-12-03T19:45:12.428Z,49.88
2022-12-03T19:47:38.965Z,44.72
2022-12-03T19:50:06.357Z,51.03
2022-12-03T19:52:36.275Z,53.35
2022-12-03T19:55:03.175Z,44.33
2022-12-03T19:57:29.894Z,50.70
2022-12-03T19:59:56.751Z,55.33
2022-12-03T20:02:23.838Z,46.90
2022-12-03T20:04:50.559Z,60.00
2022-12-03T20:07:20.538Z,50.03
2022-12-03T20:09:50.417Z,45.67
2022-12-03T20:12:17.751Z,48.75
2022-12-03T20:14:45.212Z,49.42
2022-12-03T20:17:11.815Z,49.65
2022-12-03T20:19:38.327Z,51.33
2022-12-03T20:22:04.916Z,53.20
2022-12-03T20:24:31.551Z,59.97
2022-12-03T20:26:58.360Z,54.17
2022-12-03T20:29:24.966Z,35.13
2022-12-03T20:31:51.701Z,46.05
2022-12-03T20:34:18.406Z,68.00
2022-12-03T20:36:45.598Z,51.00
2022-12-03T20:39:12.534Z,52.33
2022-12-03T20:41:39.167Z,64.43
2022-12-03T20:44:07.567Z,53.67
2022-12-03T20:46:34.813Z,58.30
2022-12-03T20:49:01.625Z,56.38
2022-12-03T20:51:30.142Z,50.33
2022-12-03T20:53:58.989Z,52.20
2022-12-03T20:56:28.698Z,48.67
2022-12-03T20:58:55.269Z,49.08
2022-12-03T21:01:27.557Z,36.53
2022-12-03T21:03:55.943Z,60.97
2022-12-03T21:06:25.106Z,46.00
2022-12-03T21:08:56.639Z,57.40
2022-12-03T21:11:26.069Z,52.83
2022-12-03T21:13:53.902Z,58.50
2022-12-03T21:16:39.768Z,59.33
2022-12-03T21:19:10.642Z,55.22
2022-12-03T21:21:37.484Z,54.08
2022-12-03T21:24:04.418Z,46.78
2022-12-03T21:26:32.643Z,52.95
2022-12-03T21:29:01.307Z,58.63
2022-12-03T21:31:30.072Z,51.40
2022-12-03T21:33:57.098Z,46.08
2022-12-03T21:36:25.426Z,54.38
2022-12-03T21:38:52.480Z,42.95
2022-12-03T21:41:19.156Z,64.65
2022-12-03T21:43:46.228Z,44.45
2022-12-03T21:47:08.327Z,35.83
2022-12-03T21:49:03.766Z,50.13
2022-12-03T21:51:30.335Z,51.25
2022-12-03T21:53:57.240Z,57.83
2022-12-03T21:56:23.877Z,56.63
2022-12-03T21:58:50.502Z,58.63
2022-12-03T22:01:20.592Z,53.97
2022-12-03T22:03:47.942Z,34.70
2022-12-03T22:06:15.740Z,54.03
2022-12-03T22:08:42.858Z,58.88
2022-12-03T22:11:23.592Z,55.63
2022-12-03T22:13:51.249Z,53.45
2022-12-03T22:16:20.651Z,52.08
2022-12-03T22:18:47.859Z,53.58
2022-12-03T22:21:17.882Z,56.80
2022-12-03T22:23:45.065Z,53.75
2022-12-03T22:26:15.651Z,62.55
2022-12-03T22:28:44.002Z,52.35
2022-12-03T22:31:11.052Z,57.58
2022-12-03T22:33:37.988Z,65.10
2022-12-03T22:36:18.010Z,57.35
2022-12-03T22:38:49.381Z,62.58
2022-12-03T22:41:16.076Z,54.38
2022-12-03T22:43:43.120Z,58.70
2022-12-03T22:46:12.921Z,58.70
2022-12-03T22:48:41.452Z,70.93
2022-12-03T22:51:17.591Z,70.50
2022-12-03T22:53:44.862Z,59.20
2022-12-03T22:56:11.775Z,62.72
2022-12-03T22:58:40.139Z,57.67
2022-12-03T23:01:07.536Z,53.70
2022-12-03T23:03:34.387Z,57.80
2022-12-03T23:06:01.372Z,57.03
2022-12-03T23:08:27.981Z,73.55
2022-12-03T23:10:54.734Z,60.67
2022-12-03T23:13:21.256Z,71.15
2022-12-03T23:15:50.668Z,53.55
2022-12-03T23:18:18.582Z,63.22
2022-12-03T23:20:51.153Z,52.70
2022-12-03T23:23:19.565Z,46.30
2022-12-03T23:26:06.650Z,61.90
2022-12-03T23:28:35.073Z,60.70
2022-12-03T23:31:02.007Z,58.70
2022-12-03T23:33:28.724Z,61.05
2022-12-03T23:35:55.535Z,60.05
2022-12-03T23:38:22.280Z,63.75
2022-12-03T23:40:50.058Z,60.00
2022-12-03T23:43:16.659Z,66.53
2022-12-03T23:45:43.174Z,66.63
2022-12-03T23:48:10.311Z,73.72
2022-12-03T23:50:41.224Z,68.78
2022-12-03T23:53:08.435Z,57.65
2022-12-03T23:55:38.908Z,60.35
2022-12-03T23:58:05.681Z,64.43
